Time;durP1;ratioP1;P1;durP2;ratioP2;P2;SDS_P1;SDS_P2;PMS_P1;PMS_P2;Temp;Humidity;BMP_temperature;BMP_pressure;BME280_temperature;BME280_humidity;BME280_pressure;Samples;Min_cycle;Max_cycle;Signal;HPM_P1;HPM_P2
2024/01/01 00:00:38;;;;;;;88.77;73.57;;;;;;;;;;6127656;23;20194;-87
2024/01/01 00:03:07;;;;;;;116.67;103.90;;;;;;;;;;6127654;23;20228;-88
2024/01/01 00:05:36;;;;;;;128.10;113.17;;;;;;;;;;6128335;23;20225;-87
2024/01/01 00:08:05;;;;;;;124.03;111.30;;;;;;;;;;6154140;23;20226;-86
2024/01/01 00:10:36;;;;;;;140.23;126.83;;;;;;;;;;6153238;23;20179;-87
2024/01/01 00:13:04;;;;;;;111.47;94.93;;;;;;;;;;6127348;23;20181;-87
2024/01/01 00:15:33;;;;;;;97.10;86.50;;;;;;;;;;6153779;23;20178;-87
2024/01/01 00:18:01;;;;;;;121.47;108.77;;;;;;;;;;6153550;23;20250;-87
2024/01/01 00:20:30;;;;;;;119.47;96.50;;;;;;;;;;6127715;23;20176;-87
2024/01/01 00:22:59;;;;;;;147.83;133.43;;;;;;;;;;6153125;23;20170;-86
2024/01/01 00:25:32;;;;;;;193.23;176.07;;;;;;;;;;6128064;23;20175;-87
2024/01/01 00:28:02;;;;;;;149.13;134.00;;;;;;;;;;6153626;23;20227;-87
2024/01/01 00:30:31;;;;;;;138.23;123.17;;;;;;;;;;6153659;23;20218;-87
2024/01/01 00:32:59;;;;;;;177.23;161.17;;;;;;;;;;6126923;23;20224;-87
2024/01/01 00:35:28;;;;;;;160.67;144.00;;;;;;;;;;6128014;23;20184;-87
2024/01/01 00:37:57;;;;;;;119.03;106.10;;;;;;;;;;6153951;23;20172;-87
2024/01/01 00:40:25;;;;;;;128.07;115.23;;;;;;;;;;6127738;23;20168;-87
2024/01/01 00:42:53;;;;;;;178.07;163.27;;;;;;;;;;6153323;23;20459;-87
2024/01/01 00:45:23;;;;;;;150.40;137.37;;;;;;;;;;6127753;23;20180;-87
2024/01/01 00:48:04;;;;;;;126.90;114.40;;;;;;;;;;6153209;23;20171;-87
2024/01/01 00:50:33;;;;;;;139.63;127.93;;;;;;;;;;6127678;23;20207;-87
2024/01/01 00:53:02;;;;;;;89.03;70.73;;;;;;;;;;6152935;23;20191;-87
2024/01/01 00:55:31;;;;;;;65.47;54.80;;;;;;;;;;6154028;23;20176;-87
2024/01/01 00:58:00;;;;;;;78.03;69.70;;;;;;;;;;6153477;23;20172;-87
2024/01/01 01:00:30;;;;;;;54.13;45.10;;;;;;;;;;6127889;23;20262;-86
2024/01/01 01:02:59;;;;;;;43.60;35.53;;;;;;;;;;6152880;23;20271;-87
2024/01/01 01:05:27;;;;;;;38.90;34.77;;;;;;;;;;6127339;23;20203;-87
2024/01/01 01:07:56;;;;;;;40.33;35.03;;;;;;;;;;6127507;23;20179;-87
2024/01/01 01:10:25;;;;;;;37.20;33.33;;;;;;;;;;6127482;23;20176;-87
2024/01/01 01:12:57;;;;;;;31.20;25.43;;;;;;;;;;6127145;23;20250;-87
2024/01/01 01:15:28;;;;;;;42.47;37.47;;;;;;;;;;6127519;23;20199;-87
2024/01/01 01:17:58;;;;;;;29.00;19.87;;;;;;;;;;6154048;23;20243;-87
2024/01/01 01:20:27;;;;;;;49.83;44.67;;;;;;;;;;6153799;23;20277;-85
2024/01/01 01:22:55;;;;;;;29.13;23.70;;;;;;;;;;6127388;23;20177;-87
2024/01/01 01:25:24;;;;;;;37.33;33.40;;;;;;;;;;6127279;23;20200;-87
2024/01/01 01:27:52;;;;;;;44.80;37.73;;;;;;;;;;6127748;23;20182;-87
2024/01/01 01:30:21;;;;;;;34.23;25.90;;;;;;;;;;6127543;23;20232;-87
2024/01/01 01:32:49;;;;;;;33.23;27.87;;;;;;;;;;6152634;23;20194;-87
2024/01/01 01:35:19;;;;;;;36.57;29.23;;;;;;;;;;6152969;23;20231;-87
2024/01/01 01:37:48;;;;;;;29.10;26.13;;;;;;;;;;6153269;23;20201;-87
2024/01/01 01:40:16;;;;;;;21.77;13.93;;;;;;;;;;6153807;23;20179;-87
2024/01/01 01:42:47;;;;;;;23.17;17.47;;;;;;;;;;6127662;23;20174;-86
2024/01/01 01:45:15;;;;;;;26.13;18.83;;;;;;;;;;6127294;23;20212;-87
2024/01/01 01:47:44;;;;;;;36.00;29.63;;;;;;;;;;6153544;23;20222;-87
2024/01/01 01:50:13;;;;;;;23.13;15.43;;;;;;;;;;6127841;23;20277;-87
2024/01/01 01:52:44;;;;;;;27.03;19.00;;;;;;;;;;6126872;23;20244;-87
2024/01/01 01:55:13;;;;;;;27.50;16.60;;;;;;;;;;6152781;23;20180;-87
2024/01/01 01:57:43;;;;;;;27.77;18.40;;;;;;;;;;6127293;23;20188;-87
2024/01/01 02:00:13;;;;;;;14.03;8.83;;;;;;;;;;6128789;23;20183;-87
2024/01/01 02:02:42;;;;;;;18.83;11.53;;;;;;;;;;6128775;23;20196;-87
2024/01/01 02:05:10;;;;;;;15.43;8.60;;;;;;;;;;6154637;23;20196;-87
2024/01/01 02:07:39;;;;;;;13.00;5.07;;;;;;;;;;6154540;23;20204;-87
2024/01/01 02:10:10;;;;;;;8.50;3.80;;;;;;;;;;6129715;23;20184;-87
2024/01/01 02:12:38;;;;;;;10.93;4.40;;;;;;;;;;6129174;23;20225;-87
2024/01/01 02:15:07;;;;;;;9.67;2.80;;;;;;;;;;6128305;23;20182;-87
2024/01/01 02:17:35;;;;;;;15.77;5.07;;;;;;;;;;6155528;23;20192;-87
2024/01/01 02:20:05;;;;;;;16.37;5.57;;;;;;;;;;6155082;23;20170;-87
2024/01/01 02:22:49;;;;;;;8.87;3.60;;;;;;;;;;6155061;23;20173;-87
2024/01/01 02:25:19;;;;;;;9.00;2.67;;;;;;;;;;6154276;23;20188;-87
2024/01/01 02:27:49;;;;;;;12.77;4.50;;;;;;;;;;6156277;23;20202;-87
2024/01/01 02:30:18;;;;;;;12.37;2.80;;;;;;;;;;6129083;23;20196;-87
2024/01/01 02:32:46;;;;;;;16.87;3.60;;;;;;;;;;6129223;23;20197;-87
2024/01/01 02:35:15;;;;;;;10.63;3.00;;;;;;;;;;6154193;23;20208;-87
2024/01/01 02:37:44;;;;;;;6.60;2.80;;;;;;;;;;6154753;23;20175;-87
2024/01/01 02:40:13;;;;;;;5.43;2.10;;;;;;;;;;6154996;23;20179;-87
2024/01/01 02:42:43;;;;;;;4.13;2.33;;;;;;;;;;6154934;23;20170;-87
2024/01/01 02:45:11;;;;;;;6.43;4.83;;;;;;;;;;6154384;23;20174;-87
2024/01/01 02:47:40;;;;;;;11.77;3.30;;;;;;;;;;6128451;23;20200;-88
2024/01/01 02:50:09;;;;;;;10.07;2.10;;;;;;;;;;6154747;23;20173;-87
2024/01/01 02:52:37;;;;;;;4.97;2.03;;;;;;;;;;6155101;23;20215;-87
2024/01/01 02:55:06;;;;;;;13.13;2.90;;;;;;;;;;6154676;23;20173;-86
2024/01/01 02:57:34;;;;;;;6.90;3.10;;;;;;;;;;6154158;23;20174;-87
2024/01/01 03:00:08;;;;;;;13.27;3.60;;;;;;;;;;6154778;23;20216;-87
2024/01/01 03:02:38;;;;;;;7.37;2.10;;;;;;;;;;6154625;23;20192;-87
2024/01/01 03:05:07;;;;;;;6.23;1.90;;;;;;;;;;6128413;23;20369;-87
2024/01/01 03:07:36;;;;;;;9.93;4.07;;;;;;;;;;6154508;23;20188;-87
2024/01/01 03:10:05;;;;;;;11.90;3.70;;;;;;;;;;6154821;23;20176;-87
2024/01/01 03:12:34;;;;;;;15.57;4.97;;;;;;;;;;6127766;23;20206;-86
2024/01/01 03:15:03;;;;;;;22.83;5.13;;;;;;;;;;6128520;23;20244;-87
2024/01/01 03:17:33;;;;;;;11.03;4.10;;;;;;;;;;6127669;23;20183;-87
2024/01/01 03:20:04;;;;;;;14.90;4.40;;;;;;;;;;6154771;23;20172;-87
2024/01/01 03:22:33;;;;;;;8.83;2.43;;;;;;;;;;6128649;23;20273;-87
2024/01/01 03:25:01;;;;;;;6.30;2.93;;;;;;;;;;6128634;23;20184;-87
2024/01/01 03:27:30;;;;;;;14.87;2.80;;;;;;;;;;6154346;23;20280;-88
2024/01/01 03:29:58;;;;;;;8.50;2.93;;;;;;;;;;6154516;23;20184;-87
2024/01/01 03:32:27;;;;;;;2.63;1.57;;;;;;;;;;6128459;23;20209;-88
2024/01/01 03:34:57;;;;;;;10.30;3.67;;;;;;;;;;6122854;23;20202;-87
2024/01/01 03:37:25;;;;;;;13.57;3.43;;;;;;;;;;6124594;23;20171;-88
2024/01/01 03:39:54;;;;;;;9.27;2.33;;;;;;;;;;6123194;23;20207;-87
2024/01/01 03:42:23;;;;;;;3.00;2.43;;;;;;;;;;6123509;23;20182;-87
2024/01/01 03:44:52;;;;;;;8.53;2.00;;;;;;;;;;6125229;23;20197;-87
2024/01/01 03:47:20;;;;;;;7.20;4.00;;;;;;;;;;6124500;23;20174;-87
2024/01/01 03:49:53;;;;;;;8.63;4.63;;;;;;;;;;6124402;23;20234;-87
2024/01/01 03:52:23;;;;;;;6.00;2.43;;;;;;;;;;6123447;23;20277;-87
2024/01/01 03:54:51;;;;;;;8.60;3.50;;;;;;;;;;6123441;23;20201;-87
2024/01/01 03:57:20;;;;;;;9.43;3.10;;;;;;;;;;6122910;23;20190;-87
2024/01/01 03:59:48;;;;;;;18.10;3.47;;;;;;;;;;6123279;23;20182;-88
2024/01/01 04:02:17;;;;;;;9.77;3.07;;;;;;;;;;6123292;23;20181;-88
2024/01/01 04:04:45;;;;;;;8.47;3.97;;;;;;;;;;6123157;23;20199;-87
2024/01/01 04:07:14;;;;;;;14.27;3.63;;;;;;;;;;6123058;23;20203;-87
2024/01/01 04:09:44;;;;;;;18.80;5.77;;;;;;;;;;6124018;23;20166;-87
2024/01/01 04:12:13;;;;;;;13.63;3.47;;;;;;;;;;6124770;23;20178;-87
2024/01/01 04:14:41;;;;;;;12.47;4.50;;;;;;;;;;6123127;23;20202;-85
2024/01/01 04:17:11;;;;;;;14.33;4.67;;;;;;;;;;6124275;23;20200;-87
2024/01/01 04:19:44;;;;;;;13.90;4.60;;;;;;;;;;6122584;23;20182;-87
2024/01/01 04:22:13;;;;;;;13.60;4.13;;;;;;;;;;6124153;23;20175;-87
2024/01/01 04:24:42;;;;;;;9.07;4.10;;;;;;;;;;6123141;23;20202;-87
2024/01/01 04:27:12;;;;;;;12.77;4.93;;;;;;;;;;6122943;23;20269;-87
2024/01/01 04:29:41;;;;;;;18.00;3.13;;;;;;;;;;6122798;23;20216;-86
2024/01/01 04:32:09;;;;;;;10.13;3.63;;;;;;;;;;6122485;23;20180;-88
2024/01/01 04:34:38;;;;;;;8.40;3.97;;;;;;;;;;6143939;23;20210;-87
2024/01/01 04:37:06;;;;;;;11.13;4.37;;;;;;;;;;6153688;23;20173;-87
2024/01/01 04:39:35;;;;;;;11.47;3.33;;;;;;;;;;6153466;23;20178;-87
2024/01/01 04:42:04;;;;;;;7.30;2.87;;;;;;;;;;6153310;23;20224;-87
2024/01/01 04:44:34;;;;;;;7.53;3.67;;;;;;;;;;6128093;23;20180;-87
2024/01/01 04:47:02;;;;;;;10.40;4.23;;;;;;;;;;6127998;23;20209;-87
2024/01/01 04:49:35;;;;;;;9.27;5.17;;;;;;;;;;6127418;23;20204;-87
2024/01/01 04:52:04;;;;;;;12.00;5.40;;;;;;;;;;6127865;23;20206;-87
2024/01/01 04:54:33;;;;;;;8.63;4.17;;;;;;;;;;6128140;23;20219;-87
2024/01/01 04:57:01;;;;;;;8.07;3.53;;;;;;;;;;6128167;23;20184;-87
2024/01/01 04:59:30;;;;;;;11.10;4.33;;;;;;;;;;6153328;23;20175;-87
2024/01/01 05:01:59;;;;;;;7.90;4.57;;;;;;;;;;6127347;23;20186;-87
2024/01/01 05:04:28;;;;;;;10.77;5.23;;;;;;;;;;6153962;23;20168;-87
2024/01/01 05:06:56;;;;;;;10.20;5.00;;;;;;;;;;6153458;23;20193;-87
2024/01/01 05:09:25;;;;;;;12.40;5.20;;;;;;;;;;6127560;23;20201;-87
2024/01/01 05:11:54;;;;;;;12.20;5.97;;;;;;;;;;6127195;23;20178;-87
2024/01/01 05:14:22;;;;;;;7.77;3.63;;;;;;;;;;6127772;23;20205;-86
2024/01/01 05:16:50;;;;;;;10.77;5.90;;;;;;;;;;6128035;23;20201;-85
2024/01/01 05:19:21;;;;;;;12.33;4.60;;;;;;;;;;6153121;23;20249;-85
2024/01/01 05:21:49;;;;;;;15.50;4.60;;;;;;;;;;6153095;23;20228;-85
2024/01/01 05:24:17;;;;;;;8.30;3.70;;;;;;;;;;6128119;23;20185;-85
2024/01/01 05:26:46;;;;;;;16.93;5.27;;;;;;;;;;6153995;23;20379;-86
2024/01/01 05:29:14;;;;;;;11.30;5.47;;;;;;;;;;6127475;23;20177;-85
2024/01/01 05:31:43;;;;;;;12.40;4.87;;;;;;;;;;6127063;23;20175;-85
2024/01/01 05:34:11;;;;;;;15.90;4.90;;;;;;;;;;6153941;23;20203;-85
2024/01/01 05:36:41;;;;;;;14.37;4.63;;;;;;;;;;6129491;23;20509;-85
2024/01/01 05:39:09;;;;;;;10.13;3.60;;;;;;;;;;6155577;23;20199;-85
2024/01/01 05:41:38;;;;;;;10.90;4.90;;;;;;;;;;6128966;23;20175;-85
2024/01/01 05:44:06;;;;;;;14.27;4.90;;;;;;;;;;6129672;23;20189;-86
2024/01/01 05:46:35;;;;;;;5.83;3.50;;;;;;;;;;6155467;23;20186;-86
2024/01/01 05:49:04;;;;;;;6.63;3.00;;;;;;;;;;6129296;23;20183;-86
2024/01/01 05:51:31;;;;;;;13.33;5.13;;;;;;;;;;6128770;23;20179;-86
2024/01/01 05:54:02;;;;;;;12.90;5.23;;;;;;;;;;6129496;23;20294;-86
2024/01/01 05:56:30;;;;;;;8.60;4.10;;;;;;;;;;6155291;23;20171;-85
2024/01/01 05:58:59;;;;;;;4.60;3.37;;;;;;;;;;6129724;23;20178;-86
2024/01/01 06:01:27;;;;;;;14.40;3.13;;;;;;;;;;6154682;23;20178;-85
2024/01/01 06:03:56;;;;;;;13.73;4.13;;;;;;;;;;6128659;23;20565;-85
2024/01/01 06:06:25;;;;;;;12.03;4.43;;;;;;;;;;6155378;23;20505;-85
2024/01/01 06:08:53;;;;;;;8.23;2.87;;;;;;;;;;6155471;23;20174;-85
2024/01/01 06:11:23;;;;;;;5.10;3.43;;;;;;;;;;6128713;23;20202;-85
2024/01/01 06:13:52;;;;;;;9.20;2.87;;;;;;;;;;6128640;23;20189;-86
2024/01/01 06:16:20;;;;;;;16.50;4.07;;;;;;;;;;6155392;23;20174;-85
2024/01/01 06:18:49;;;;;;;3.93;2.43;;;;;;;;;;6155876;23;20206;-85
2024/01/01 06:21:18;;;;;;;8.87;3.20;;;;;;;;;;6154654;23;20207;-85
2024/01/01 06:23:46;;;;;;;6.33;2.47;;;;;;;;;;6154406;23;20182;-85
2024/01/01 06:26:15;;;;;;;7.13;3.97;;;;;;;;;;6129412;23;20431;-85
2024/01/01 06:28:46;;;;;;;9.20;2.60;;;;;;;;;;6128854;23;20178;-85
2024/01/01 06:31:14;;;;;;;9.37;3.27;;;;;;;;;;6128285;23;20208;-85
2024/01/01 06:33:43;;;;;;;13.57;4.50;;;;;;;;;;6154491;23;20287;-85
2024/01/01 06:36:11;;;;;;;10.70;3.83;;;;;;;;;;6129109;23;20197;-85
2024/01/01 06:38:40;;;;;;;8.10;3.27;;;;;;;;;;6129514;23;20179;-86
2024/01/01 06:41:09;;;;;;;5.30;3.13;;;;;;;;;;6155060;23;20202;-86
2024/01/01 06:43:37;;;;;;;12.60;3.53;;;;;;;;;;6128112;23;20191;-85
2024/01/01 06:46:07;;;;;;;32.93;4.43;;;;;;;;;;6129171;23;20234;-85
2024/01/01 06:48:36;;;;;;;8.07;1.87;;;;;;;;;;6154862;23;20172;-85
2024/01/01 06:51:09;;;;;;;4.70;2.37;;;;;;;;;;6154860;23;20179;-86
2024/01/01 06:53:38;;;;;;;10.37;3.30;;;;;;;;;;6154102;23;20391;-86
2024/01/01 06:56:07;;;;;;;8.63;3.27;;;;;;;;;;6128966;23;20286;-86
2024/01/01 06:58:39;;;;;;;11.63;3.60;;;;;;;;;;6154618;23;20198;-86
2024/01/01 07:01:09;;;;;;;7.40;2.60;;;;;;;;;;6128737;23;20254;-86
2024/01/01 07:03:38;;;;;;;6.23;3.43;;;;;;;;;;6154007;23;20182;-86
2024/01/01 07:06:07;;;;;;;14.13;4.97;;;;;;;;;;6154142;23;20190;-87
2024/01/01 07:08:35;;;;;;;6.40;2.47;;;;;;;;;;6129500;23;20185;-87
2024/01/01 07:11:04;;;;;;;8.83;2.57;;;;;;;;;;6154768;23;20229;-87
2024/01/01 07:13:33;;;;;;;6.17;2.30;;;;;;;;;;6154117;23;20225;-87
2024/01/01 07:16:01;;;;;;;9.77;3.67;;;;;;;;;;6128389;23;20220;-87
2024/01/01 07:18:31;;;;;;;9.33;3.57;;;;;;;;;;6128911;23;20270;-87
2024/01/01 07:21:00;;;;;;;5.20;2.47;;;;;;;;;;6154441;23;20203;-87
2024/01/01 07:23:30;;;;;;;4.73;2.43;;;;;;;;;;6127836;23;20179;-87
2024/01/01 07:25:59;;;;;;;11.60;3.67;;;;;;;;;;6154298;23;20167;-87
2024/01/01 07:28:29;;;;;;;4.30;2.23;;;;;;;;;;6128549;23;20174;-87
2024/01/01 07:30:58;;;;;;;5.50;2.83;;;;;;;;;;6128912;23;20179;-87
2024/01/01 07:33:27;;;;;;;12.77;3.00;;;;;;;;;;6153571;23;20328;-87
2024/01/01 07:35:57;;;;;;;4.97;2.63;;;;;;;;;;6128111;23;20237;-87
2024/01/01 07:38:26;;;;;;;6.13;1.90;;;;;;;;;;6154100;23;20175;-87
2024/01/01 07:40:55;;;;;;;8.27;1.13;;;;;;;;;;6128108;23;20190;-87
2024/01/01 07:43:23;;;;;;;6.10;2.30;;;;;;;;;;6153642;23;20345;-87
2024/01/01 07:45:52;;;;;;;10.43;3.00;;;;;;;;;;6127998;23;20181;-87
2024/01/01 07:48:20;;;;;;;12.90;3.30;;;;;;;;;;6128337;23;20181;-87
2024/01/01 07:50:52;;;;;;;4.50;1.63;;;;;;;;;;6128581;23;20181;-87
2024/01/01 07:53:21;;;;;;;5.43;2.17;;;;;;;;;;6128335;23;20261;-87
2024/01/01 07:55:50;;;;;;;5.40;3.37;;;;;;;;;;6127804;23;20220;-87
2024/01/01 07:58:18;;;;;;;6.50;1.93;;;;;;;;;;6128376;23;20224;-87
2024/01/01 08:00:47;;;;;;;7.50;1.87;;;;;;;;;;6155127;23;20169;-87
2024/01/01 08:03:17;;;;;;;5.13;1.70;;;;;;;;;;6128519;23;20174;-87
2024/01/01 08:05:45;;;;;;;7.27;2.97;;;;;;;;;;6127533;23;20220;-87
2024/01/01 08:08:14;;;;;;;10.27;2.60;;;;;;;;;;6128525;23;20268;-88
2024/01/01 08:10:46;;;;;;;4.80;1.90;;;;;;;;;;6128609;23;20268;-87
2024/01/01 08:13:15;;;;;;;12.70;4.33;;;;;;;;;;6127735;23;20178;-87
2024/01/01 08:15:43;;;;;;;13.40;3.83;;;;;;;;;;6127747;23;20285;-87
2024/01/01 08:18:12;;;;;;;5.50;2.57;;;;;;;;;;6127900;23;20177;-87
2024/01/01 08:20:41;;;;;;;7.50;1.77;;;;;;;;;;6128275;23;20184;-87
2024/01/01 08:23:15;;;;;;;5.67;2.33;;;;;;;;;;6127949;23;20203;-87
2024/01/01 08:25:43;;;;;;;5.33;2.33;;;;;;;;;;6153298;23;20173;-87
2024/01/01 08:28:14;;;;;;;3.30;3.00;;;;;;;;;;6154113;23;20170;-87
2024/01/01 08:30:43;;;;;;;13.10;2.43;;;;;;;;;;6154300;23;20180;-87
2024/01/01 08:33:13;;;;;;;10.13;3.30;;;;;;;;;;6127807;23;20186;-87
2024/01/01 08:35:42;;;;;;;2.47;1.80;;;;;;;;;;6153113;23;20247;-87
2024/01/01 08:38:10;;;;;;;8.10;2.17;;;;;;;;;;6153741;23;20261;-87
2024/01/01 08:40:39;;;;;;;7.90;2.43;;;;;;;;;;6128405;23;20212;-87
2024/01/01 08:43:07;;;;;;;12.27;2.50;;;;;;;;;;6153526;23;20170;-87
2024/01/01 08:45:39;;;;;;;6.43;2.97;;;;;;;;;;6127187;23;20184;-87
2024/01/01 08:48:08;;;;;;;8.10;3.10;;;;;;;;;;6127032;23;20178;-87
2024/01/01 08:50:37;;;;;;;5.33;1.87;;;;;;;;;;6127897;23;20210;-87
2024/01/01 08:53:05;;;;;;;11.17;3.47;;;;;;;;;;6153702;23;20177;-87
2024/01/01 08:55:34;;;;;;;10.50;3.70;;;;;;;;;;6127760;23;20189;-87
2024/01/01 08:58:02;;;;;;;4.27;2.40;;;;;;;;;;6152949;23;20208;-87
2024/01/01 09:00:31;;;;;;;2.50;1.33;;;;;;;;;;6127918;23;20186;-87
2024/01/01 09:03:03;;;;;;;8.60;3.00;;;;;;;;;;6153286;23;20185;-87
2024/01/01 09:05:32;;;;;;;12.80;3.00;;;;;;;;;;6153535;23;20241;-87
2024/01/01 09:08:01;;;;;;;6.50;2.47;;;;;;;;;;6152806;23;20182;-87
2024/01/01 09:10:30;;;;;;;8.93;2.83;;;;;;;;;;6154988;23;20286;-87
2024/01/01 09:12:58;;;;;;;6.20;2.27;;;;;;;;;;6129628;23;20223;-87
2024/01/01 09:15:28;;;;;;;6.93;2.37;;;;;;;;;;6155733;23;20254;-87
2024/01/01 09:17:57;;;;;;;12.33;3.67;;;;;;;;;;6129326;23;20210;-87
2024/01/01 09:20:27;;;;;;;9.07;3.10;;;;;;;;;;6130204;23;20182;-87
2024/01/01 09:22:57;;;;;;;4.93;2.27;;;;;;;;;;6129418;23;20186;-87
2024/01/01 09:25:26;;;;;;;5.60;2.50;;;;;;;;;;6129506;23;20186;-87
2024/01/01 09:27:54;;;;;;;4.30;1.90;;;;;;;;;;6155274;23;20166;-87
2024/01/01 09:30:22;;;;;;;7.70;1.80;;;;;;;;;;6155464;23;20179;-87
2024/01/01 09:32:51;;;;;;;9.20;3.70;;;;;;;;;;6155844;23;20236;-87
2024/01/01 09:35:20;;;;;;;9.53;2.93;;;;;;;;;;6124917;23;20223;-87
2024/01/01 09:37:52;;;;;;;5.00;1.33;;;;;;;;;;6123814;23;20282;-87
2024/01/01 09:40:22;;;;;;;10.97;2.60;;;;;;;;;;6125558;23;20197;-87
2024/01/01 09:42:50;;;;;;;8.17;2.83;;;;;;;;;;6124372;23;20211;-87
2024/01/01 09:45:19;;;;;;;1.23;1.17;;;;;;;;;;6125977;23;20320;-87
2024/01/01 09:47:47;;;;;;;9.93;4.83;;;;;;;;;;6124003;23;20178;-87
2024/01/01 09:50:16;;;;;;;2.97;1.80;;;;;;;;;;6125255;23;20174;-87
2024/01/01 09:52:44;;;;;;;6.77;2.50;;;;;;;;;;6123849;23;20175;-87
2024/01/01 09:55:14;;;;;;;8.37;3.80;;;;;;;;;;6124651;23;20175;-87
2024/01/01 09:57:43;;;;;;;7.40;2.97;;;;;;;;;;6125788;23;20202;-87
2024/01/01 10:00:21;;;;;;;23.33;3.93;;;;;;;;;;6123809;23;20266;-87
2024/01/01 10:02:50;;;;;;;4.07;1.30;;;;;;;;;;6125798;23;20254;-87
2024/01/01 10:05:19;;;;;;;9.63;3.90;;;;;;;;;;6124489;23;20272;-87
2024/01/01 10:07:48;;;;;;;29.90;3.03;;;;;;;;;;6125174;23;20174;-87
2024/01/01 10:10:28;;;;;;;4.83;2.50;;;;;;;;;;6123533;23;20342;-86
2024/01/01 10:13:08;;;;;;;4.50;1.77;;;;;;;;;;6126055;23;20179;-87
2024/01/01 10:15:38;;;;;;;7.90;2.07;;;;;;;;;;6124880;23;20183;-87
2024/01/01 10:18:11;;;;;;;7.20;2.47;;;;;;;;;;6124989;23;20191;-87
2024/01/01 10:20:40;;;;;;;13.47;3.27;;;;;;;;;;6123395;23;20179;-87
2024/01/01 10:23:27;;;;;;;10.93;4.80;;;;;;;;;;6125754;23;20177;-87
2024/01/01 10:26:10;;;;;;;7.60;2.90;;;;;;;;;;6126272;23;20217;-87
2024/01/01 10:28:40;;;;;;;5.50;2.17;;;;;;;;;;6125661;23;20202;-87
2024/01/01 10:31:12;;;;;;;3.70;1.80;;;;;;;;;;6126005;23;20178;-87
2024/01/01 10:33:41;;;;;;;2.77;1.67;;;;;;;;;;6124055;23;20297;-87
2024/01/01 10:36:12;;;;;;;19.73;2.83;;;;;;;;;;6125226;23;20174;-87
2024/01/01 10:38:41;;;;;;;6.60;2.33;;;;;;;;;;6124137;23;20205;-87
2024/01/01 10:41:14;;;;;;;5.80;2.33;;;;;;;;;;6124011;23;20187;-87
2024/01/01 10:43:43;;;;;;;9.67;4.47;;;;;;;;;;6124101;23;20225;-87
2024/01/01 10:46:13;;;;;;;8.37;2.07;;;;;;;;;;6124448;23;20237;-87
2024/01/01 10:48:44;;;;;;;3.47;1.30;;;;;;;;;;6125235;23;20255;-87
2024/01/01 10:51:22;;;;;;;6.17;3.03;;;;;;;;;;6124630;23;20170;-87
2024/01/01 10:53:59;;;;;;;9.53;3.47;;;;;;;;;;6126004;23;20171;-87
2024/01/01 10:56:34;;;;;;;10.03;3.03;;;;;;;;;;6125595;23;20285;-87
2024/01/01 10:59:07;;;;;;;14.40;3.20;;;;;;;;;;6125646;23;20376;-87
2024/01/01 11:01:37;;;;;;;17.43;3.30;;;;;;;;;;6124646;23;20176;-87
2024/01/01 11:04:06;;;;;;;7.33;2.80;;;;;;;;;;6125188;23;20222;-87
2024/01/01 11:06:39;;;;;;;2.60;1.40;;;;;;;;;;6125576;23;20225;-87
2024/01/01 11:09:26;;;;;;;7.83;3.93;;;;;;;;;;6123679;23;20178;-87
2024/01/01 11:11:57;;;;;;;11.47;3.10;;;;;;;;;;6124821;23;20170;-87
2024/01/01 11:14:25;;;;;;;2.50;1.53;;;;;;;;;;6125463;23;20257;-87
2024/01/01 11:16:55;;;;;;;6.63;2.13;;;;;;;;;;6123884;23;20195;-87
2024/01/01 11:19:42;;;;;;;4.93;2.10;;;;;;;;;;6123532;23;20189;-87
2024/01/01 11:22:39;;;;;;;9.73;3.20;;;;;;;;;;6122876;23;20209;-87
2024/01/01 11:25:08;;;;;;;8.60;2.97;;;;;;;;;;6123740;23;20207;-86
2024/01/01 11:27:47;;;;;;;9.67;4.33;;;;;;;;;;6123790;23;20223;-87
2024/01/01 11:30:17;;;;;;;7.43;2.37;;;;;;;;;;6124742;23;20187;-87
2024/01/01 11:32:45;;;;;;;4.90;3.20;;;;;;;;;;6124336;23;20177;-87
2024/01/01 11:35:14;;;;;;;8.23;2.80;;;;;;;;;;6152051;23;20209;-87
2024/01/01 11:37:44;;;;;;;1.33;1.23;;;;;;;;;;6128553;23;20196;-87
2024/01/01 11:40:13;;;;;;;6.17;3.33;;;;;;;;;;6128137;23;20187;-87
2024/01/01 11:42:43;;;;;;;3.23;1.57;;;;;;;;;;6127498;23;20197;-87
2024/01/01 11:45:12;;;;;;;4.93;2.53;;;;;;;;;;6128253;23;20182;-87
2024/01/01 11:47:41;;;;;;;4.63;2.57;;;;;;;;;;6154853;23;20168;-86
2024/01/01 11:50:11;;;;;;;7.43;2.40;;;;;;;;;;6154146;23;20176;-86
2024/01/01 11:52:40;;;;;;;13.67;2.43;;;;;;;;;;6153531;23;20192;-85
2024/01/01 11:55:09;;;;;;;11.83;2.80;;;;;;;;;;6128571;23;20178;-85
2024/01/01 11:57:42;;;;;;;6.43;2.17;;;;;;;;;;6154110;23;20225;-85
2024/01/01 12:00:13;;;;;;;5.50;1.60;;;;;;;;;;6153833;23;20178;-85
2024/01/01 12:02:42;;;;;;;7.47;3.17;;;;;;;;;;6127332;23;20187;-85
2024/01/01 12:05:10;;;;;;;17.03;5.10;;;;;;;;;;6127920;23;20387;-86
2024/01/01 12:07:39;;;;;;;6.13;2.20;;;;;;;;;;6154362;23;20179;-85
2024/01/01 12:10:09;;;;;;;10.17;3.27;;;;;;;;;;6128333;23;20177;-85
2024/01/01 12:12:38;;;;;;;5.67;2.30;;;;;;;;;;6127574;23;20171;-85
2024/01/01 12:15:12;;;;;;;10.93;4.37;;;;;;;;;;6128024;23;20228;-85
2024/01/01 12:17:42;;;;;;;7.13;3.60;;;;;;;;;;6128022;23;20204;-85
2024/01/01 12:20:12;;;;;;;5.53;1.73;;;;;;;;;;6153905;23;20174;-86
2024/01/01 12:22:40;;;;;;;12.43;4.40;;;;;;;;;;6127031;23;20179;-85
2024/01/01 12:25:15;;;;;;;5.87;2.80;;;;;;;;;;6153724;23;20229;-85
2024/01/01 12:27:44;;;;;;;6.30;3.07;;;;;;;;;;6153996;23;20185;-85
2024/01/01 12:30:27;;;;;;;3.43;1.83;;;;;;;;;;6154196;23;20217;-85
2024/01/01 12:32:56;;;;;;;6.23;2.83;;;;;;;;;;6127080;23;20185;-85
2024/01/01 12:35:26;;;;;;;5.90;2.40;;;;;;;;;;6153296;23;20259;-85
2024/01/01 12:37:54;;;;;;;6.63;2.07;;;;;;;;;;6127910;23;20232;-86
2024/01/01 12:40:25;;;;;;;9.27;2.83;;;;;;;;;;6127933;23;20268;-85
2024/01/01 12:42:54;;;;;;;11.10;3.43;;;;;;;;;;6127480;23;20265;-85
2024/01/01 12:45:22;;;;;;;10.43;3.73;;;;;;;;;;6153270;23;20178;-85
2024/01/01 12:47:53;;;;;;;8.43;2.80;;;;;;;;;;6128492;23;20178;-85
2024/01/01 12:50:21;;;;;;;15.17;3.17;;;;;;;;;;6153599;23;20174;-85
2024/01/01 12:52:50;;;;;;;7.70;2.53;;;;;;;;;;6153339;23;20181;-85
2024/01/01 12:55:18;;;;;;;6.77;2.63;;;;;;;;;;6127555;23;20187;-85
2024/01/01 12:57:47;;;;;;;10.40;3.77;;;;;;;;;;6128123;23;20205;-85
2024/01/01 13:00:16;;;;;;;13.53;4.13;;;;;;;;;;6153316;23;20182;-85
2024/01/01 13:02:44;;;;;;;3.87;2.00;;;;;;;;;;6127720;23;20188;-85
2024/01/01 13:05:14;;;;;;;12.97;2.80;;;;;;;;;;6127259;23;20265;-85
2024/01/01 13:07:43;;;;;;;10.30;3.30;;;;;;;;;;6127654;23;20266;-85
2024/01/01 13:10:12;;;;;;;14.93;3.30;;;;;;;;;;6154301;23;20175;-86
2024/01/01 13:12:40;;;;;;;4.97;2.20;;;;;;;;;;6153075;23;20168;-85
2024/01/01 13:15:09;;;;;;;5.03;2.73;;;;;;;;;;6127463;23;20178;-85
2024/01/01 13:17:38;;;;;;;4.73;2.37;;;;;;;;;;6127893;23;20221;-86
2024/01/01 13:20:09;;;;;;;3.23;2.50;;;;;;;;;;6153733;23;20176;-86
2024/01/01 13:22:39;;;;;;;8.20;3.20;;;;;;;;;;6153451;23;20179;-85
2024/01/01 13:25:08;;;;;;;9.23;2.57;;;;;;;;;;6153317;23;20175;-85
2024/01/01 13:27:36;;;;;;;10.33;4.20;;;;;;;;;;6153855;23;20174;-85
2024/01/01 13:30:05;;;;;;;8.97;3.57;;;;;;;;;;6127588;23;20182;-87
2024/01/01 13:32:35;;;;;;;7.10;2.27;;;;;;;;;;6153060;23;20225;-87
2024/01/01 13:35:04;;;;;;;8.53;3.20;;;;;;;;;;6153326;23;20206;-87
2024/01/01 13:37:33;;;;;;;6.73;3.30;;;;;;;;;;6126818;23;20268;-87
2024/01/01 13:40:06;;;;;;;4.60;2.17;;;;;;;;;;6127284;23;20204;-87
2024/01/01 13:42:35;;;;;;;10.53;3.37;;;;;;;;;;6127278;23;20237;-87
2024/01/01 13:45:04;;;;;;;9.07;3.43;;;;;;;;;;6152618;23;20201;-87
2024/01/01 13:47:32;;;;;;;3.83;2.00;;;;;;;;;;6127508;23;20179;-87
2024/01/01 13:50:01;;;;;;;4.43;1.77;;;;;;;;;;6153751;23;20181;-85
2024/01/01 13:52:31;;;;;;;8.93;3.30;;;;;;;;;;6127901;23;20185;-85
2024/01/01 13:54:59;;;;;;;10.87;3.60;;;;;;;;;;6153265;23;20193;-86
2024/01/01 13:57:32;;;;;;;11.70;2.97;;;;;;;;;;6155438;23;20200;-86
2024/01/01 14:00:01;;;;;;;8.37;3.23;;;;;;;;;;6129762;23;20193;-86
2024/01/01 14:02:29;;;;;;;8.53;2.70;;;;;;;;;;6155176;23;20224;-86
2024/01/01 14:04:58;;;;;;;12.07;2.30;;;;;;;;;;6154836;23;20201;-86
2024/01/01 14:07:26;;;;;;;7.37;2.10;;;;;;;;;;6129214;23;20238;-86
2024/01/01 14:09:54;;;;;;;10.37;2.77;;;;;;;;;;6155675;23;20261;-85
2024/01/01 14:12:23;;;;;;;10.63;3.63;;;;;;;;;;6129340;23;20177;-86
2024/01/01 14:14:53;;;;;;;6.23;1.80;;;;;;;;;;6129235;23;20205;-85
2024/01/01 14:17:22;;;;;;;4.80;1.70;;;;;;;;;;6129081;23;20178;-86
2024/01/01 14:19:52;;;;;;;8.87;3.00;;;;;;;;;;6155074;23;20201;-86
2024/01/01 14:22:21;;;;;;;13.80;3.27;;;;;;;;;;6129402;23;20178;-86
2024/01/01 14:24:49;;;;;;;7.13;2.83;;;;;;;;;;6154731;23;20184;-86
2024/01/01 14:27:18;;;;;;;7.93;2.57;;;;;;;;;;6128585;23;20214;-85
2024/01/01 14:29:46;;;;;;;8.20;2.17;;;;;;;;;;6155430;23;20174;-85
2024/01/01 14:32:16;;;;;;;10.73;1.93;;;;;;;;;;6155131;23;20181;-85
2024/01/01 14:34:46;;;;;;;6.93;2.33;;;;;;;;;;6124327;23;20206;-86
2024/01/01 14:37:14;;;;;;;11.07;4.47;;;;;;;;;;6123998;23;20260;-86
2024/01/01 14:39:43;;;;;;;6.97;3.30;;;;;;;;;;6124629;23;20234;-86
2024/01/01 14:42:11;;;;;;;9.80;2.47;;;;;;;;;;6123876;23;20182;-86
2024/01/01 14:44:40;;;;;;;7.73;2.53;;;;;;;;;;6125609;23;20202;-85
2024/01/01 14:47:09;;;;;;;9.27;3.10;;;;;;;;;;6124124;23;20186;-86